createdAt,value
2023-05-23T00:02:28.436Z,10.58
2023-05-23T00:04:58.030Z,10.57
2023-05-23T00:07:29.010Z,10.54
2023-05-23T00:09:58.674Z,10.50
2023-05-23T00:12:29.202Z,10.48
2023-05-23T00:15:02.423Z,10.44
2023-05-23T00:17:31.589Z,10.43
2023-05-23T00:20:01.054Z,10.40
2023-05-23T00:22:30.162Z,10.34
2023-05-23T00:25:01.646Z,10.30
2023-05-23T00:27:31.722Z,10.27
2023-05-23T00:30:02.702Z,10.24
2023-05-23T00:32:31.743Z,10.23
2023-05-23T00:35:01.159Z,10.22
2023-05-23T00:37:33.660Z,10.20
2023-05-23T00:40:02.814Z,10.17
2023-05-23T00:42:32.632Z,10.17
2023-05-23T00:45:02.733Z,10.17
2023-05-23T00:47:32.622Z,10.16
2023-05-23T00:50:01.630Z,10.13
2023-05-23T00:52:30.879Z,10.13
2023-05-23T00:55:04.250Z,10.09
2023-05-23T00:57:34.790Z,10.09
2023-05-23T01:00:04.013Z,10.06
2023-05-23T01:02:41.070Z,10.06
2023-05-23T01:05:20.191Z,10.05
2023-05-23T01:07:51.193Z,10.03
2023-05-23T01:10:23.958Z,10.01
2023-05-23T01:13:07.341Z,9.98
2023-05-23T01:15:44.129Z,9.94
2023-05-23T01:18:30.144Z,9.91
2023-05-23T01:21:03.636Z,9.86
2023-05-23T01:24:05.306Z,9.82
2023-05-23T01:26:48.637Z,9.84
2023-05-23T01:29:24.838Z,9.78
2023-05-23T01:32:00.837Z,9.74
2023-05-23T01:34:31.420Z,9.72
2023-05-23T01:37:10.644Z,9.72
2023-05-23T01:39:44.418Z,9.69
2023-05-23T01:42:13.848Z,9.65
2023-05-23T01:44:43.400Z,9.65
2023-05-23T01:47:19.777Z,9.64
2023-05-23T01:49:51.039Z,9.61
2023-05-23T01:52:23.892Z,9.60
2023-05-23T01:54:59.268Z,9.60
2023-05-23T01:57:36.069Z,9.57
2023-05-23T02:00:10.480Z,9.57
2023-05-23T02:02:43.501Z,9.54
2023-05-23T02:05:12.982Z,9.51
2023-05-23T02:07:42.014Z,9.49
2023-05-23T02:10:11.886Z,9.44
2023-05-23T02:12:43.273Z,9.41
2023-05-23T02:15:14.461Z,9.40
2023-05-23T02:17:53.482Z,9.37
2023-05-23T02:20:22.782Z,9.34
2023-05-23T02:22:54.760Z,9.33
2023-05-23T02:25:28.353Z,9.30
2023-05-23T02:27:59.532Z,9.29
2023-05-23T02:30:36.133Z,9.26
2023-05-23T02:33:14.625Z,9.26
2023-05-23T02:35:50.386Z,9.23
2023-05-23T02:38:20.185Z,9.23
2023-05-23T02:40:52.961Z,9.19
2023-05-23T02:43:22.214Z,9.18
2023-05-23T02:45:51.298Z,9.19
2023-05-23T02:48:26.426Z,9.18
2023-05-23T02:50:57.273Z,9.22
2023-05-23T02:53:27.338Z,9.21
2023-05-23T02:55:56.684Z,9.21
2023-05-23T02:58:28.166Z,9.25
2023-05-23T03:00:59.016Z,9.25
2023-05-23T03:03:31.383Z,9.26
2023-05-23T03:06:00.609Z,9.27
2023-05-23T03:08:29.861Z,9.26
2023-05-23T03:10:58.762Z,9.29
2023-05-23T03:13:32.363Z,9.30
2023-05-23T03:16:02.413Z,9.33
2023-05-23T03:18:43.399Z,9.36
2023-05-23T03:21:12.752Z,9.40
2023-05-23T03:23:41.931Z,9.43
2023-05-23T03:26:12.391Z,9.44
2023-05-23T03:28:44.444Z,9.49
2023-05-23T03:31:13.293Z,9.53
2023-05-23T03:33:44.732Z,9.60
2023-05-23T03:36:13.808Z,9.60
2023-05-23T03:38:45.433Z,9.65
2023-05-23T03:41:14.495Z,9.69
2023-05-23T03:43:45.444Z,9.77
2023-05-23T03:47:01.350Z,9.82
2023-05-23T03:49:58.606Z,9.91
2023-05-23T03:52:28.352Z,10.02
2023-05-23T03:54:57.589Z,10.06
2023-05-23T03:57:27.188Z,10.17
2023-05-23T03:59:56.843Z,10.26
2023-05-23T04:02:26.097Z,10.37
2023-05-23T04:04:56.586Z,10.54
2023-05-23T04:07:26.843Z,10.74
2023-05-23T04:10:00.144Z,10.95
2023-05-23T04:12:34.053Z,11.36
2023-05-23T04:15:11.011Z,12.59
2023-05-23T04:17:51.114Z,13.72
2023-05-23T04:20:22.138Z,14.47
2023-05-23T04:22:59.119Z,14.82
2023-05-23T04:25:31.135Z,14.92
2023-05-23T04:28:17.304Z,15.00
2023-05-23T04:30:48.854Z,15.06
2023-05-23T04:33:21.197Z,15.11
2023-05-23T04:35:53.048Z,15.15
2023-05-23T04:38:25.141Z,15.30
2023-05-23T04:40:57.392Z,15.42
2023-05-23T04:43:29.562Z,15.61
2023-05-23T04:46:09.657Z,16.38
2023-05-23T04:48:51.472Z,18.20
2023-05-23T04:51:27.496Z,20.05
2023-05-23T04:54:06.459Z,22.14
2023-05-23T04:56:37.979Z,23.82
2023-05-23T04:59:08.241Z,25.44
2023-05-23T05:01:53.091Z,26.73
2023-05-23T05:04:29.028Z,28.07
2023-05-23T05:07:05.841Z,29.38
2023-05-23T05:09:38.173Z,30.50
2023-05-23T05:12:11.167Z,31.41
2023-05-23T05:14:42.423Z,32.06
2023-05-23T05:17:12.432Z,32.72
2023-05-23T05:19:56.447Z,33.37
2023-05-23T05:22:27.443Z,33.93
2023-05-23T05:24:57.167Z,34.33
2023-05-23T05:27:27.839Z,34.50
2023-05-23T05:30:07.468Z,33.89
2023-05-23T05:32:41.693Z,33.05
2023-05-23T05:35:13.518Z,32.85
2023-05-23T05:37:50.468Z,33.21
2023-05-23T05:40:22.824Z,33.93
2023-05-23T05:42:53.054Z,34.78
2023-05-23T05:45:29.739Z,35.35
2023-05-23T05:48:12.378Z,35.97
2023-05-23T05:50:44.808Z,36.26
2023-05-23T05:53:20.064Z,36.28
2023-05-23T05:55:50.348Z,36.32
2023-05-23T05:58:21.644Z,36.49
2023-05-23T06:01:15.058Z,37.00
2023-05-23T06:03:47.916Z,37.60
2023-05-23T06:06:20.349Z,38.01
2023-05-23T06:08:50.397Z,38.34
2023-05-23T06:11:20.043Z,38.22
2023-05-23T06:13:55.127Z,37.88
2023-05-23T06:17:00.489Z,37.94
2023-05-23T06:19:30.892Z,36.57
2023-05-23T06:22:03.586Z,34.63
2023-05-23T06:24:47.169Z,32.93
2023-05-23T06:27:19.690Z,31.41
2023-05-23T06:29:56.402Z,29.80
2023-05-23T06:32:26.547Z,28.28
2023-05-23T06:34:57.515Z,27.11
2023-05-23T06:37:27.059Z,26.16
2023-05-23T06:39:58.233Z,25.28
2023-05-23T06:42:28.409Z,24.62
2023-05-23T06:45:11.123Z,24.25
2023-05-23T06:47:43.312Z,23.92
2023-05-23T06:50:19.637Z,23.59
2023-05-23T06:52:51.330Z,23.37
2023-05-23T06:55:21.309Z,23.20
2023-05-23T06:57:57.851Z,23.04
2023-05-23T07:00:28.777Z,22.82
2023-05-23T07:03:18.809Z,22.69
2023-05-23T07:05:51.296Z,22.66
2023-05-23T07:08:21.951Z,22.65
2023-05-23T07:10:58.830Z,22.60
2023-05-23T07:13:37.048Z,22.63
2023-05-23T07:16:07.149Z,22.60
2023-05-23T07:18:39.418Z,22.59
2023-05-23T07:21:08.654Z,22.52
2023-05-23T07:23:40.900Z,22.51
2023-05-23T07:26:11.263Z,22.56
2023-05-23T07:28:51.008Z,22.73
2023-05-23T07:31:22.625Z,22.80
2023-05-23T07:33:59.033Z,22.84
2023-05-23T07:36:35.656Z,22.94
2023-05-23T07:39:09.298Z,23.07
2023-05-23T07:41:38.843Z,23.15
2023-05-23T07:44:10.051Z,23.34
2023-05-23T07:46:53.130Z,23.44
2023-05-23T07:49:26.184Z,23.48
2023-05-23T07:51:57.653Z,23.48
2023-05-23T07:54:27.262Z,23.48
2023-05-23T07:57:06.810Z,23.38
2023-05-23T07:59:36.750Z,23.41
2023-05-23T08:02:06.308Z,23.46
2023-05-23T08:04:43.054Z,23.56
2023-05-23T08:07:12.477Z,23.60
2023-05-23T08:10:01.589Z,23.69
2023-05-23T08:12:33.867Z,23.72
2023-05-23T08:15:11.496Z,23.75
2023-05-23T08:17:50.250Z,23.82
2023-05-23T08:20:30.038Z,23.90
2023-05-23T08:23:01.911Z,23.97
2023-05-23T08:25:31.839Z,24.04
2023-05-23T08:28:15.048Z,24.04
2023-05-23T08:30:50.178Z,24.07
2023-05-23T08:33:20.196Z,24.22
2023-05-23T08:35:50.757Z,24.35
2023-05-23T08:38:23.748Z,24.51
2023-05-23T08:41:23.184Z,24.82
2023-05-23T08:43:55.167Z,25.06
2023-05-23T08:46:30.309Z,25.29
2023-05-23T08:49:00.570Z,25.55
2023-05-23T08:51:31.368Z,25.86
2023-05-23T08:54:03.264Z,26.14
2023-05-23T08:56:40.753Z,26.42
2023-05-23T08:59:17.075Z,26.63
2023-05-23T09:01:58.234Z,26.72
2023-05-23T09:04:32.018Z,26.87
2023-05-23T09:07:06.821Z,27.06
2023-05-23T09:09:36.753Z,27.29
2023-05-23T09:12:09.932Z,27.56
2023-05-23T09:14:49.625Z,27.77
2023-05-23T09:17:24.043Z,28.00
2023-05-23T09:19:54.406Z,28.14
2023-05-23T09:22:51.464Z,28.20
2023-05-23T09:25:22.519Z,28.08
2023-05-23T09:27:54.534Z,27.90
2023-05-23T09:30:34.606Z,28.03
2023-05-23T09:33:09.667Z,28.11
2023-05-23T09:35:46.748Z,28.17
2023-05-23T09:38:20.798Z,28.26
2023-05-23T09:40:50.519Z,28.45
2023-05-23T09:43:25.639Z,28.61
2023-05-23T09:46:06.872Z,28.76
2023-05-23T09:48:35.785Z,28.91
2023-05-23T09:51:21.026Z,29.18
2023-05-23T09:53:51.690Z,29.49
2023-05-23T09:56:28.943Z,29.61
2023-05-23T09:59:01.200Z,29.56
2023-05-23T10:01:33.617Z,29.54
2023-05-23T10:04:10.824Z,29.52
2023-05-23T10:06:49.630Z,29.30
2023-05-23T10:09:25.151Z,29.23
2023-05-23T10:12:36.855Z,29.25
2023-05-23T10:15:10.021Z,29.25
2023-05-23T10:17:56.573Z,29.30
2023-05-23T10:20:31.847Z,29.20
2023-05-23T10:23:01.669Z,29.04
2023-05-23T10:25:30.789Z,28.86
2023-05-23T10:28:03.942Z,28.73
2023-05-23T10:30:44.389Z,28.83
2023-05-23T10:33:19.580Z,28.94
2023-05-23T10:35:59.649Z,28.94
2023-05-23T10:38:36.610Z,29.00
2023-05-23T10:41:19.032Z,29.20
2023-05-23T10:43:57.495Z,29.45
2023-05-23T10:46:57.015Z,29.54
2023-05-23T10:49:48.989Z,29.45
2023-05-23T10:52:19.001Z,29.40
2023-05-23T10:54:51.094Z,29.45
2023-05-23T10:57:27.218Z,29.62
2023-05-23T10:59:59.468Z,29.76
2023-05-23T11:02:32.090Z,29.88
2023-05-23T11:05:22.559Z,29.69
2023-05-23T11:08:17.405Z,29.52
2023-05-23T11:11:02.959Z,29.13
2023-05-23T11:13:56.444Z,28.69
2023-05-23T11:16:29.768Z,28.39
2023-05-23T11:19:27.609Z,28.30
2023-05-23T11:21:59.794Z,28.17
2023-05-23T11:24:51.144Z,28.27
2023-05-23T11:27:30.800Z,28.45
2023-05-23T11:30:01.311Z,28.71
2023-05-23T11:32:31.461Z,28.89
2023-05-23T11:35:05.581Z,29.06
2023-05-23T11:37:37.860Z,29.21
2023-05-23T11:40:29.556Z,29.34
2023-05-23T11:42:59.470Z,29.38
2023-05-23T11:45:31.884Z,29.42
2023-05-23T11:48:17.267Z,29.35
2023-05-23T11:50:50.933Z,29.14
2023-05-23T11:53:21.581Z,29.04
2023-05-23T11:55:54.906Z,29.00
2023-05-23T11:58:23.304Z,29.04
2023-05-23T12:00:55.060Z,29.10
2023-05-23T12:03:27.608Z,29.25
2023-05-23T12:05:57.838Z,29.30
2023-05-23T12:08:26.709Z,29.23
2023-05-23T12:10:58.982Z,29.17
2023-05-23T12:13:30.164Z,29.18
2023-05-23T12:16:01.664Z,29.06
2023-05-23T12:18:35.292Z,29.06
2023-05-23T12:21:08.142Z,29.18
2023-05-23T12:23:39.402Z,29.21
2023-05-23T12:26:12.778Z,29.30
2023-05-23T12:28:44.342Z,29.37
2023-05-23T12:31:17.809Z,29.28
2023-05-23T12:33:48.391Z,28.99
2023-05-23T12:36:24.004Z,28.79
2023-05-23T12:39:02.237Z,28.83
2023-05-23T12:41:32.590Z,28.90
2023-05-23T12:44:03.783Z,28.89
2023-05-23T12:46:32.854Z,28.83
2023-05-23T12:49:01.819Z,28.69
2023-05-23T12:51:33.089Z,28.56
2023-05-23T12:54:02.138Z,28.56
2023-05-23T12:56:32.188Z,28.56
2023-05-23T12:59:05.525Z,28.61
2023-05-23T13:01:40.827Z,28.79
2023-05-23T13:04:10.062Z,28.73
2023-05-23T13:06:39.460Z,28.65
2023-05-23T13:09:11.950Z,28.68
2023-05-23T13:11:42.117Z,28.76
2023-05-23T13:14:14.561Z,28.76
2023-05-23T13:16:47.432Z,28.75
2023-05-23T13:19:24.230Z,28.66
2023-05-23T13:21:53.960Z,28.56
2023-05-23T13:24:24.359Z,28.59
2023-05-23T13:26:53.748Z,28.68
2023-05-23T13:29:22.678Z,28.66
2023-05-23T13:31:55.121Z,28.59
2023-05-23T13:34:24.108Z,28.51
2023-05-23T13:36:53.200Z,28.51
2023-05-23T13:39:22.404Z,28.39
2023-05-23T13:41:53.794Z,28.28
2023-05-23T13:44:22.803Z,28.24
2023-05-23T13:47:12.527Z,28.13
2023-05-23T13:49:43.144Z,28.08
2023-05-23T13:52:15.341Z,28.01
2023-05-23T13:54:46.034Z,27.91
2023-05-23T13:57:15.183Z,27.89
2023-05-23T13:59:44.847Z,27.79
2023-05-23T14:02:13.891Z,27.73
2023-05-23T14:04:43.136Z,27.71
2023-05-23T14:07:14.416Z,27.76
2023-05-23T14:09:44.435Z,27.87
2023-05-23T14:12:13.434Z,27.83
2023-05-23T14:14:42.665Z,27.79
2023-05-23T14:17:21.411Z,27.65
2023-05-23T14:19:51.088Z,27.51
2023-05-23T14:22:22.212Z,27.55
2023-05-23T14:24:54.256Z,27.54
2023-05-23T14:27:23.915Z,27.45
2023-05-23T14:29:55.495Z,27.45
2023-05-23T14:32:24.452Z,27.55
2023-05-23T14:34:54.742Z,27.44
2023-05-23T14:37:23.566Z,27.35
2023-05-23T14:39:53.389Z,27.37
2023-05-23T14:42:25.110Z,27.41
2023-05-23T14:44:54.300Z,27.49
2023-05-23T14:47:23.138Z,27.55
2023-05-23T14:49:52.368Z,27.55
2023-05-23T14:52:24.510Z,27.48
2023-05-23T14:54:53.624Z,27.35
2023-05-23T14:57:25.508Z,27.29
2023-05-23T14:59:59.787Z,27.17
2023-05-23T15:02:29.410Z,27.13
2023-05-23T15:04:58.733Z,27.06
2023-05-23T15:07:28.087Z,26.87
2023-05-23T15:09:57.584Z,26.70
2023-05-23T15:12:32.680Z,26.52
2023-05-23T15:15:03.696Z,26.41
2023-05-23T15:17:33.842Z,26.32
2023-05-23T15:20:05.323Z,26.28
2023-05-23T15:22:40.467Z,26.21
2023-05-23T15:25:33.902Z,26.21
2023-05-23T15:28:15.571Z,26.20
2023-05-23T15:30:49.087Z,26.10
2023-05-23T15:33:23.043Z,26.07
2023-05-23T15:35:55.275Z,26.00
2023-05-23T15:38:24.361Z,25.93
2023-05-23T15:40:54.906Z,25.84
2023-05-23T15:43:25.713Z,25.77
2023-05-23T15:45:55.054Z,25.77
2023-05-23T15:48:24.212Z,25.75
2023-05-23T15:50:53.304Z,25.64
2023-05-23T15:53:25.397Z,25.58
2023-05-23T15:55:57.227Z,25.49
2023-05-23T15:58:32.452Z,25.48
2023-05-23T16:01:02.908Z,25.39
2023-05-23T16:03:34.678Z,25.35
2023-05-23T16:06:05.259Z,25.28
2023-05-23T16:08:37.015Z,25.20
2023-05-23T16:11:09.009Z,25.10
2023-05-23T16:13:40.577Z,25.03
2023-05-23T16:16:10.697Z,24.96
2023-05-23T16:18:40.815Z,24.87
2023-05-23T16:21:13.166Z,24.79
2023-05-23T16:23:42.081Z,24.72
2023-05-23T16:26:11.375Z,24.63
2023-05-23T16:28:43.251Z,24.58
2023-05-23T16:31:18.186Z,24.49
2023-05-23T16:33:47.108Z,24.47
2023-05-23T16:36:17.286Z,24.45
2023-05-23T16:38:46.633Z,24.41
2023-05-23T16:41:17.260Z,24.34
2023-05-23T16:43:48.844Z,24.28
2023-05-23T16:46:22.144Z,24.18
2023-05-23T16:51:37.710Z,23.99
2023-05-23T16:54:09.569Z,23.89
2023-05-23T16:56:41.004Z,23.79
2023-05-23T16:59:10.350Z,23.70
2023-05-23T17:01:57.092Z,23.63
2023-05-23T17:04:26.165Z,23.53
2023-05-23T17:06:55.259Z,23.45
2023-05-23T17:09:24.457Z,23.39
2023-05-23T17:11:56.453Z,23.34
2023-05-23T17:14:28.024Z,23.25
2023-05-23T17:16:57.010Z,23.18
2023-05-23T17:19:27.942Z,23.10
2023-05-23T17:21:58.533Z,23.01
2023-05-23T17:24:33.631Z,22.95
2023-05-23T17:27:03.939Z,22.86
2023-05-23T17:29:35.256Z,22.76
2023-05-23T17:32:09.568Z,22.63
2023-05-23T17:34:42.048Z,22.55
2023-05-23T17:37:12.680Z,22.45
2023-05-23T17:39:42.841Z,22.34
2023-05-23T17:42:15.266Z,22.20
2023-05-23T17:44:46.511Z,22.10
2023-05-23T17:47:18.278Z,21.94
2023-05-23T17:49:48.750Z,21.84
2023-05-23T17:52:19.073Z,21.69
2023-05-23T17:54:49.065Z,21.60
2023-05-23T17:57:22.984Z,21.48
2023-05-23T17:59:56.772Z,21.32
2023-05-23T18:02:27.586Z,21.21
2023-05-23T18:04:59.006Z,21.10
2023-05-23T18:07:28.277Z,20.97
2023-05-23T18:09:59.121Z,20.84
2023-05-23T18:12:28.456Z,20.73
2023-05-23T18:14:59.257Z,20.62
2023-05-23T18:17:29.947Z,20.52
2023-05-23T18:19:59.788Z,20.41
2023-05-23T18:22:32.797Z,20.29
2023-05-23T18:25:02.121Z,20.21
2023-05-23T18:27:37.121Z,20.11
2023-05-23T18:30:22.953Z,20.00
2023-05-23T18:33:01.614Z,19.94
2023-05-23T18:35:39.982Z,19.86
2023-05-23T18:38:14.899Z,19.77
2023-05-23T18:40:44.981Z,19.70
2023-05-23T18:43:20.627Z,19.65
2023-05-23T18:45:50.549Z,19.56
2023-05-23T18:48:27.898Z,19.49
2023-05-23T18:51:02.641Z,19.39
2023-05-23T18:53:33.807Z,19.35
2023-05-23T18:56:08.302Z,19.30
2023-05-23T18:58:38.809Z,19.25
2023-05-23T19:01:11.017Z,19.17
2023-05-23T19:03:40.758Z,19.13
2023-05-23T19:06:10.204Z,19.07
2023-05-23T19:08:41.883Z,19.00
2023-05-23T19:11:11.632Z,18.93
2023-05-23T19:13:40.812Z,18.88
2023-05-23T19:16:13.751Z,18.83
2023-05-23T19:18:42.773Z,18.82
2023-05-23T19:21:17.888Z,18.79
2023-05-23T19:23:48.554Z,18.69
2023-05-23T19:26:20.465Z,18.63
2023-05-23T19:28:50.528Z,18.60
2023-05-23T19:31:27.121Z,18.54
2023-05-23T19:33:57.689Z,18.44
2023-05-23T19:36:31.000Z,18.36
2023-05-23T19:39:00.167Z,18.32
2023-05-23T19:41:29.267Z,18.27
2023-05-23T19:43:58.037Z,18.18
2023-05-23T19:46:28.214Z,18.11
2023-05-23T19:48:57.435Z,18.08
2023-05-23T19:51:29.724Z,18.03
2023-05-23T19:53:58.889Z,17.94
2023-05-23T19:56:29.058Z,17.89
2023-05-23T19:58:58.147Z,17.87
2023-05-23T20:01:29.467Z,17.85
2023-05-23T20:03:58.342Z,17.80
2023-05-23T20:06:27.454Z,17.76
2023-05-23T20:08:56.484Z,17.73
2023-05-23T20:11:28.725Z,17.69
2023-05-23T20:14:00.600Z,17.68
2023-05-23T20:16:29.782Z,17.64
2023-05-23T20:18:59.199Z,17.61
2023-05-23T20:21:30.663Z,17.58
2023-05-23T20:24:02.151Z,17.59
2023-05-23T20:26:32.528Z,17.55
2023-05-23T20:29:09.321Z,17.55
2023-05-23T20:31:54.049Z,17.55
2023-05-23T20:34:23.467Z,17.53
2023-05-23T20:36:53.172Z,17.53
2023-05-23T20:39:23.612Z,17.52
2023-05-23T20:41:54.429Z,17.55
2023-05-23T20:44:23.315Z,17.52
2023-05-23T20:46:57.279Z,17.52
2023-05-23T20:49:26.479Z,17.53
2023-05-23T20:51:57.816Z,17.49
2023-05-23T20:54:27.655Z,17.52
2023-05-23T20:56:57.032Z,17.49
2023-05-23T20:59:25.953Z,17.52
2023-05-23T21:01:55.053Z,17.49
2023-05-23T21:04:28.267Z,17.52
2023-05-23T21:06:57.408Z,17.53
2023-05-23T21:09:26.320Z,17.52
2023-05-23T21:12:14.501Z,17.52
2023-05-23T21:14:44.774Z,17.52
2023-05-23T21:17:15.398Z,17.49
2023-05-23T21:19:46.056Z,17.46
2023-05-23T21:22:15.541Z,17.42
2023-05-23T21:24:54.046Z,17.45
2023-05-23T21:27:22.934Z,17.43
2023-05-23T21:29:52.258Z,17.41
2023-05-23T21:32:23.496Z,17.37
2023-05-23T21:34:52.694Z,17.38
2023-05-23T21:37:21.704Z,17.35
2023-05-23T21:39:52.337Z,17.37
2023-05-23T21:42:22.100Z,17.34
2023-05-23T21:44:53.831Z,17.34
2023-05-23T21:47:24.846Z,17.31
2023-05-23T21:49:54.243Z,17.31
2023-05-23T21:52:23.294Z,17.31
2023-05-23T21:54:52.260Z,17.32
2023-05-23T21:57:21.687Z,17.28
2023-05-23T21:59:50.554Z,17.27
2023-05-23T22:02:25.436Z,17.31
2023-05-23T22:04:54.619Z,17.32
2023-05-23T22:07:25.518Z,17.31
2023-05-23T22:09:55.767Z,17.32
2023-05-23T22:12:25.486Z,17.34
2023-05-23T22:14:55.133Z,17.37
2023-05-23T22:17:25.809Z,17.39
2023-05-23T22:19:56.753Z,17.41
2023-05-23T22:22:26.514Z,17.45
2023-05-23T22:24:55.320Z,17.45
2023-05-23T22:27:25.288Z,17.45
2023-05-23T22:29:54.625Z,17.46
2023-05-23T22:32:28.163Z,17.51
2023-05-23T22:34:58.505Z,17.48
2023-05-23T22:37:27.542Z,17.52
2023-05-23T22:39:57.592Z,17.51
2023-05-23T22:42:26.818Z,17.52
2023-05-23T22:44:56.233Z,17.52
2023-05-23T22:47:25.499Z,17.51
2023-05-23T22:49:56.023Z,17.51
2023-05-23T22:52:25.408Z,17.49
2023-05-23T22:54:54.969Z,17.46
2023-05-23T22:57:24.004Z,17.42
2023-05-23T22:59:55.482Z,17.41
2023-05-23T23:02:26.887Z,17.38
2023-05-23T23:04:57.212Z,17.39
2023-05-23T23:07:27.436Z,17.42
2023-05-23T23:09:56.849Z,17.43
2023-05-23T23:12:25.762Z,17.45
2023-05-23T23:14:57.658Z,17.46
2023-05-23T23:17:26.592Z,17.48
2023-05-23T23:20:00.190Z,17.46
2023-05-23T23:22:30.548Z,17.48
2023-05-23T23:25:02.150Z,17.49
2023-05-23T23:27:31.950Z,17.49
2023-05-23T23:30:00.957Z,17.46
2023-05-23T23:32:31.229Z,17.49
2023-05-23T23:35:01.524Z,17.49
2023-05-23T23:37:32.044Z,17.46
2023-05-23T23:40:00.780Z,17.46
2023-05-23T23:42:29.954Z,17.46
2023-05-23T23:44:59.162Z,17.46
2023-05-23T23:47:29.719Z,17.43
2023-05-23T23:50:00.564Z,17.42
2023-05-23T23:52:32.413Z,17.42
2023-05-23T23:55:01.683Z,17.42
2023-05-23T23:57:31.856Z,17.38
